EGHH/BOH METAR and TAF weather

Enter ICAO airport designator
Station Type Date Time Source
EGHH METAR 2021/05/10 18:50 UTC NOAA

EGHH 101850Z 22008KT 9999 SCT023 12/07 Q1004


Station Type Date Time Source
EGHH Decoded METAR 2021/05/10 18:50 UTC NOAA

Bournemouth Airport, United Kingdom (EGHH) 50-47N 001-50W 0M
May 10, 2021 - 02:50 PM EDT / 2021.05.10 1850 UTC
Wind: from the SW (220 degrees) at 9 MPH (8 KT):0
Visibility: greater than 7 mile(s):0
Sky conditions: partly cloudy
Temperature: 53 F (12 C)
Dew Point: 44 F (7 C)
Relative Humidity: 71%
Pressure (altimeter): 29.65 in. Hg (1004 hPa)
ob: EGHH 101850Z 22008KT 9999 SCT023 12/07 Q1004
cycle: 19

Station Type Date Time Source
EGHH TAF 2020/02/21 21:06 UTC NOAA

TAF EGHH 210200Z 2021/2123 CNL

Example: see airport list